Time;durP1;ratioP1;P1;durP2;ratioP2;P2;SDS_P1;SDS_P2;PMS_P1;PMS_P2;Temp;Humidity;BMP_temperature;BMP_pressure;BME280_temperature;BME280_humidity;BME280_pressure;Samples;Min_cycle;Max_cycle;Signal;HPM_P1;HPM_P2
2021/09/28 00:02:23;;;;;;;13.30;11.17;;;15.80;99.90;;;;;;4993260;28;20584;-82
2021/09/28 00:04:49;;;;;;;12.30;11.00;;;15.80;99.90;;;;;;4997356;28;20253;-82
2021/09/28 00:07:16;;;;;;;11.87;10.67;;;15.80;99.90;;;;;;4990519;28;20169;-82
2021/09/28 00:09:42;;;;;;;13.23;11.83;;;15.90;99.90;;;;;;5000535;28;20195;-82
2021/09/28 00:12:08;;;;;;;11.77;10.63;;;16.00;99.90;;;;;;5000261;28;20217;-82
2021/09/28 00:14:34;;;;;;;13.50;11.87;;;15.90;99.90;;;;;;5001279;28;20185;-82
2021/09/28 00:17:00;;;;;;;12.50;11.17;;;15.90;99.90;;;;;;4997277;28;20180;-82
2021/09/28 00:19:25;;;;;;;12.47;11.27;;;15.80;99.90;;;;;;4989357;28;20548;-82
2021/09/28 00:21:51;;;;;;;11.67;9.47;;;15.90;99.90;;;;;;5000453;28;20258;-82
2021/09/28 00:24:17;;;;;;;10.90;9.80;;;15.80;99.90;;;;;;4999214;28;20698;-81
2021/09/28 00:26:43;;;;;;;10.77;9.60;;;15.70;99.90;;;;;;5000281;28;20555;-81
2021/09/28 00:29:08;;;;;;;10.33;9.33;;;15.70;99.90;;;;;;5000097;28;20172;-81
2021/09/28 00:31:34;;;;;;;9.87;8.97;;;15.70;99.90;;;;;;5000473;28;20742;-81
2021/09/28 00:34:00;;;;;;;10.07;9.17;;;15.70;99.90;;;;;;4986496;28;20231;-82
2021/09/28 00:36:26;;;;;;;9.33;8.43;;;15.70;99.90;;;;;;5000278;28;20254;-81
2021/09/28 00:38:52;;;;;;;9.23;8.23;;;15.70;99.90;;;;;;5000115;28;20184;-81
2021/09/28 00:41:18;;;;;;;8.87;8.07;;;15.70;99.90;;;;;;4991053;28;20210;-81
2021/09/28 00:43:49;;;;;;;7.57;6.87;;;15.80;99.90;;;;;;4992417;28;20186;-82
2021/09/28 00:46:16;;;;;;;3.63;3.33;;;15.80;99.90;;;;;;4999007;28;20181;-81
2021/09/28 00:48:42;;;;;;;2.80;2.60;;;15.80;99.90;;;;;;4999858;28;20176;-81
2021/09/28 00:51:11;;;;;;;1.60;1.50;;;15.70;99.90;;;;;;4999241;28;20274;-81
2021/09/28 00:53:38;;;;;;;1.97;1.20;;;15.70;99.90;;;;;;4999217;28;20235;-81
2021/09/28 00:56:05;;;;;;;0.40;0.40;;;15.70;99.90;;;;;;4999719;28;20181;-82
2021/09/28 00:58:31;;;;;;;1.13;0.70;;;15.70;99.90;;;;;;5000179;28;20180;-82
2021/09/28 01:01:01;;;;;;;1.00;0.60;;;15.70;99.90;;;;;;4991656;28;20211;-82
2021/09/28 01:03:27;;;;;;;0.77;0.30;;;15.60;99.90;;;;;;4986541;28;20668;-81
2021/09/28 01:05:53;;;;;;;0.70;0.30;;;15.50;99.90;;;;;;4999670;28;20177;-82
2021/09/28 01:08:18;;;;;;;0.23;0.23;;;15.50;99.90;;;;;;4999436;28;20200;-81
2021/09/28 01:10:44;;;;;;;1.40;0.20;;;15.50;99.90;;;;;;4999390;28;20267;-81
2021/09/28 01:13:09;;;;;;;1.00;0.30;;;15.50;99.90;;;;;;4999275;28;20219;-81
2021/09/28 01:15:35;;;;;;;0.30;0.20;;;;;;;;;;4975935;28;20186;-81
2021/09/28 01:18:01;;;;;;;0.70;0.10;;;15.40;99.90;;;;;;4998050;28;20177;-81
2021/09/28 01:20:27;;;;;;;0.10;0.00;;;15.40;99.90;;;;;;4998321;28;20600;-81
2021/09/28 01:22:53;;;;;;;0.20;0.10;;;15.40;99.90;;;;;;4997283;28;20200;-81
2021/09/28 01:25:18;;;;;;;0.40;0.10;;;15.40;99.90;;;;;;4998439;28;20254;-79
2021/09/28 01:27:44;;;;;;;2.17;0.03;;;15.30;99.90;;;;;;4998285;28;20180;-81
2021/09/28 01:30:11;;;;;;;0.30;0.10;;;15.20;99.90;;;;;;4997133;28;20176;-81
2021/09/28 01:32:38;;;;;;;0.10;0.10;;;15.20;99.90;;;;;;4997797;28;20207;-81
2021/09/28 01:35:05;;;;;;;0.33;0.17;;;15.20;99.90;;;;;;4998309;28;20190;-81
2021/09/28 01:37:31;;;;;;;0.03;0.00;;;15.20;99.90;;;;;;4998148;28;20184;-81
2021/09/28 01:39:56;;;;;;;0.63;0.10;;;15.10;99.90;;;;;;4998298;28;20234;-81
2021/09/28 01:42:22;;;;;;;0.10;0.10;;;15.10;99.90;;;;;;4997090;28;20219;-81
2021/09/28 01:44:48;;;;;;;0.10;0.00;;;15.10;99.90;;;;;;4997519;28;20647;-81
2021/09/28 01:47:14;;;;;;;0.10;0.00;;;15.10;99.90;;;;;;4997822;28;20206;-81
2021/09/28 01:49:39;;;;;;;0.83;0.10;;;15.10;99.90;;;;;;4991808;28;20196;-81
2021/09/28 01:52:05;;;;;;;0.40;0.17;;;14.90;99.90;;;;;;4976015;28;20215;-81
2021/09/28 01:54:31;;;;;;;0.97;0.10;;;14.90;99.90;;;;;;4993505;28;20188;-81
2021/09/28 01:56:57;;;;;;;1.30;0.10;;;14.80;99.90;;;;;;4996254;28;20187;-81
2021/09/28 01:59:22;;;;;;;1.63;0.10;;;14.70;99.90;;;;;;4997169;28;20188;-81
2021/09/28 02:01:48;;;;;;;0.20;0.10;;;14.70;99.90;;;;;;4996251;28;20203;-81
2021/09/28 02:04:14;;;;;;;0.10;0.00;;;14.70;99.90;;;;;;4985635;28;20636;-81
2021/09/28 02:06:39;;;;;;;0.30;0.10;;;14.70;99.90;;;;;;4996081;28;20172;-81
2021/09/28 02:09:07;;;;;;;0.30;0.17;;;14.70;99.90;;;;;;4994013;28;20334;-81
2021/09/28 02:11:34;;;;;;;0.10;0.10;;;14.70;99.90;;;;;;4994175;28;20250;-81
2021/09/28 02:14:01;;;;;;;0.30;0.13;;;14.60;99.90;;;;;;4997018;28;20499;-81
2021/09/28 02:16:27;;;;;;;0.67;0.10;;;14.50;99.90;;;;;;4996810;28;20248;-81
2021/09/28 02:18:52;;;;;;;0.67;0.10;;;14.50;99.90;;;;;;4996314;28;20319;-81
2021/09/28 02:21:18;;;;;;;0.67;0.20;;;14.40;99.90;;;;;;4983877;28;20223;-80
2021/09/28 02:23:44;;;;;;;0.30;0.20;;;14.30;99.90;;;;;;4991977;28;20529;-81
2021/09/28 02:26:10;;;;;;;0.93;0.27;;;14.10;99.90;;;;;;4995067;28;20183;-81
2021/09/28 02:28:35;;;;;;;1.87;0.20;;;14.00;99.90;;;;;;4997422;28;20215;-81
2021/09/28 02:31:01;;;;;;;1.20;0.40;;;14.00;99.90;;;;;;4996131;28;20294;-81
2021/09/28 02:33:27;;;;;;;0.87;0.30;;;14.00;99.90;;;;;;4997667;28;20188;-81
2021/09/28 02:35:53;;;;;;;1.53;0.20;;;14.10;99.90;;;;;;4991079;28;20183;-81
2021/09/28 02:38:18;;;;;;;0.93;0.30;;;14.00;99.90;;;;;;4997597;28;20270;-81
2021/09/28 02:40:44;;;;;;;0.40;0.20;;;13.90;99.90;;;;;;4996087;28;20184;-81
2021/09/28 02:43:10;;;;;;;1.47;0.40;;;13.80;99.90;;;;;;4996273;28;20647;-81
2021/09/28 02:45:36;;;;;;;0.90;0.40;;;14.00;99.90;;;;;;4997717;28;20259;-81
2021/09/28 02:48:01;;;;;;;3.20;0.43;;;13.90;99.90;;;;;;4996089;28;20202;-81
2021/09/28 02:50:27;;;;;;;1.57;0.50;;;13.90;99.90;;;;;;5001480;28;20176;-81
2021/09/28 02:52:53;;;;;;;0.90;0.53;;;14.00;99.90;;;;;;4999743;28;20223;-81
2021/09/28 02:55:18;;;;;;;1.70;0.70;;;13.90;99.90;;;;;;5000113;28;20717;-81
2021/09/28 02:57:44;;;;;;;3.03;0.60;;;13.90;99.90;;;;;;5001319;28;20171;-81
2021/09/28 03:00:10;;;;;;;1.10;0.50;;;14.00;99.90;;;;;;4999489;28;20179;-80
2021/09/28 03:02:36;;;;;;;2.07;0.60;;;14.00;99.90;;;;;;4994306;28;20230;-80
2021/09/28 03:05:02;;;;;;;1.07;0.50;;;13.90;99.90;;;;;;5000335;28;20176;-81
2021/09/28 03:07:27;;;;;;;3.57;0.60;;;13.90;99.90;;;;;;5000445;28;20180;-80
2021/09/28 03:09:53;;;;;;;1.57;0.83;;;13.90;99.90;;;;;;4998568;28;20172;-80
2021/09/28 03:12:19;;;;;;;2.00;0.60;;;13.90;99.90;;;;;;5002192;28;20215;-81
2021/09/28 03:14:44;;;;;;;1.13;0.50;;;13.90;99.90;;;;;;4994258;28;20652;-80
2021/09/28 03:17:10;;;;;;;0.70;0.57;;;13.90;99.90;;;;;;5000609;28;20184;-81
2021/09/28 03:19:37;;;;;;;1.70;0.93;;;13.80;99.90;;;;;;5002845;28;20188;-81
2021/09/28 03:22:03;;;;;;;3.13;0.83;;;13.90;99.90;;;;;;5001447;28;20694;-81
2021/09/28 03:24:28;;;;;;;0.90;0.80;;;13.90;99.90;;;;;;5000323;28;20211;-81
2021/09/28 03:26:54;;;;;;;1.77;0.60;;;14.00;99.90;;;;;;5001776;28;20176;-81
2021/09/28 03:29:19;;;;;;;2.23;0.60;;;13.90;99.90;;;;;;5001721;28;20171;-80
2021/09/28 03:31:46;;;;;;;3.30;0.80;;;13.90;99.90;;;;;;5001386;28;20195;-81
2021/09/28 03:34:12;;;;;;;1.53;0.70;;;13.90;99.90;;;;;;5001648;28;20184;-81
2021/09/28 03:36:37;;;;;;;1.90;0.80;;;13.90;99.90;;;;;;5000725;28;20250;-81
2021/09/28 03:39:03;;;;;;;1.27;0.90;;;13.90;99.90;;;;;;5001005;28;20184;-81
2021/09/28 03:41:29;;;;;;;1.83;0.73;;;13.90;99.90;;;;;;4999708;28;20208;-80
2021/09/28 03:43:54;;;;;;;2.20;0.80;;;13.90;99.90;;;;;;4999835;28;20548;-80
2021/09/28 03:46:20;;;;;;;2.30;0.70;;;13.80;99.90;;;;;;5001311;28;20567;-80
2021/09/28 03:48:46;;;;;;;2.83;1.00;;;13.80;99.90;;;;;;5000667;28;20176;-80
2021/09/28 03:51:12;;;;;;;1.47;0.77;;;13.80;99.90;;;;;;4999020;28;20207;-80
2021/09/28 03:53:38;;;;;;;3.77;1.00;;;13.80;99.90;;;;;;4997157;28;20607;-81
2021/09/28 03:56:04;;;;;;;3.67;0.93;;;13.60;99.90;;;;;;4981145;28;20247;-79
2021/09/28 03:58:30;;;;;;;2.53;1.00;;;13.60;99.90;;;;;;4979611;28;20243;-80
2021/09/28 04:00:55;;;;;;;2.20;0.83;;;13.70;99.90;;;;;;4973103;28;20223;-80
2021/09/28 04:03:21;;;;;;;2.10;0.80;;;13.70;99.90;;;;;;4973764;28;20656;-77
2021/09/28 04:05:47;;;;;;;1.93;1.00;;;13.80;99.90;;;;;;4962615;28;20641;-77
2021/09/28 04:08:13;;;;;;;3.73;1.10;;;13.80;99.90;;;;;;4969573;28;20184;-79
2021/09/28 04:10:39;;;;;;;2.77;0.80;;;13.80;99.90;;;;;;4991183;28;20188;-76
2021/09/28 04:13:09;;;;;;;1.10;0.90;;;13.70;99.90;;;;;;4990828;28;20218;-76
2021/09/28 04:15:39;;;;;;;2.93;1.10;;;13.80;99.90;;;;;;4972571;28;20176;-76
2021/09/28 04:18:12;;;;;;;2.47;1.10;;;13.70;99.90;;;;;;4995514;28;20178;-76
2021/09/28 04:20:40;;;;;;;3.20;0.90;;;13.70;99.90;;;;;;4995287;28;20759;-76
2021/09/28 04:23:06;;;;;;;2.83;1.13;;;13.70;99.90;;;;;;4995616;28;20231;-76
2021/09/28 04:25:32;;;;;;;1.70;0.90;;;13.60;99.90;;;;;;4980661;28;20240;-76
2021/09/28 04:27:58;;;;;;;2.87;1.00;;;13.50;99.90;;;;;;4994097;28;20191;-76
2021/09/28 04:30:24;;;;;;;3.03;1.00;;;13.50;99.90;;;;;;4979947;28;20188;-76
2021/09/28 04:32:50;;;;;;;2.53;1.20;;;13.50;99.90;;;;;;4993185;28;20196;-77
2021/09/28 04:35:15;;;;;;;2.93;1.40;;;13.50;99.90;;;;;;4988847;28;20233;-76
2021/09/28 04:37:41;;;;;;;2.73;0.93;;;13.50;99.90;;;;;;4989703;28;20194;-76
2021/09/28 04:40:07;;;;;;;2.37;0.90;;;13.60;99.90;;;;;;4984595;28;20676;-77
2021/09/28 04:42:33;;;;;;;4.50;1.30;;;13.60;99.90;;;;;;4983056;28;20295;-76
2021/09/28 04:44:58;;;;;;;2.10;1.10;;;13.60;99.90;;;;;;4974416;28;20268;-76
2021/09/28 04:47:24;;;;;;;3.00;1.50;;;13.70;99.90;;;;;;4976455;28;20231;-76
2021/09/28 04:49:50;;;;;;;3.47;1.20;;;13.70;99.90;;;;;;4978057;28;20218;-76
2021/09/28 04:52:16;;;;;;;2.37;1.40;;;13.70;99.90;;;;;;4973954;28;20207;-76
2021/09/28 04:54:42;;;;;;;5.83;1.43;;;13.70;99.90;;;;;;4966353;28;20240;-76
2021/09/28 04:57:08;;;;;;;2.50;1.40;;;13.70;99.90;;;;;;4993839;28;20195;-77
2021/09/28 04:59:33;;;;;;;1.40;1.30;;;13.70;99.90;;;;;;4992953;28;20183;-77
2021/09/28 05:01:59;;;;;;;3.47;1.30;;;13.70;99.90;;;;;;4985849;28;20243;-77
2021/09/28 05:04:25;;;;;;;3.00;1.47;;;13.60;99.90;;;;;;4993281;28;20180;-76
2021/09/28 05:06:50;;;;;;;3.67;1.60;;;13.70;99.90;;;;;;4994461;28;20198;-76
2021/09/28 05:09:16;;;;;;;2.90;1.90;;;13.70;99.90;;;;;;4994626;28;20187;-76
2021/09/28 05:11:42;;;;;;;6.37;1.97;;;13.70;99.90;;;;;;4993878;28;20306;-76
2021/09/28 05:14:07;;;;;;;3.73;1.87;;;13.60;99.90;;;;;;4985105;28;20190;-77
2021/09/28 05:16:33;;;;;;;1.80;1.50;;;13.70;99.90;;;;;;4970273;28;20226;-76
2021/09/28 05:18:59;;;;;;;2.67;1.40;;;13.70;99.90;;;;;;4979222;28;20188;-76
2021/09/28 05:21:25;;;;;;;2.33;1.60;;;13.70;99.90;;;;;;4982968;28;20713;-75
2021/09/28 05:23:51;;;;;;;5.80;1.70;;;13.50;99.90;;;;;;4985448;28;20310;-76
2021/09/28 05:26:17;;;;;;;2.37;1.73;;;13.40;99.90;;;;;;4994613;28;20652;-76
2021/09/28 05:28:43;;;;;;;2.80;2.13;;;13.40;99.90;;;;;;4994659;28;20606;-77
2021/09/28 05:31:09;;;;;;;4.00;1.70;;;13.50;99.90;;;;;;4988853;28;20207;-77
2021/09/28 05:33:35;;;;;;;3.03;1.60;;;13.50;99.90;;;;;;4987617;28;20673;-76
2021/09/28 05:36:00;;;;;;;6.93;1.80;;;13.50;99.90;;;;;;4987175;28;20274;-77
2021/09/28 05:38:26;;;;;;;3.03;1.90;;;13.50;99.90;;;;;;4995040;28;20180;-77
2021/09/28 05:40:52;;;;;;;4.67;2.37;;;13.50;99.90;;;;;;4994255;28;20182;-76
2021/09/28 05:43:18;;;;;;;3.27;1.83;;;13.50;99.90;;;;;;4994914;28;20188;-77
2021/09/28 05:45:43;;;;;;;5.83;2.20;;;13.50;99.90;;;;;;4988997;28;20181;-77
2021/09/28 05:48:09;;;;;;;2.43;1.90;;;13.50;99.90;;;;;;4994764;28;20197;-77
2021/09/28 05:50:36;;;;;;;2.67;2.20;;;13.50;99.90;;;;;;4994456;28;20193;-77
2021/09/28 05:53:08;;;;;;;3.23;1.77;;;13.50;99.90;;;;;;4992965;28;20235;-77
2021/09/28 05:55:34;;;;;;;2.83;2.00;;;13.50;99.90;;;;;;4989819;28;20194;-77
2021/09/28 05:58:00;;;;;;;2.27;2.00;;;13.50;99.90;;;;;;4994286;28;20172;-77
2021/09/28 06:00:26;;;;;;;2.50;2.27;;;13.60;99.90;;;;;;4990323;28;20185;-81
2021/09/28 06:02:52;;;;;;;5.10;2.47;;;13.60;99.90;;;;;;4974170;28;20211;-77
2021/09/28 06:05:20;;;;;;;3.30;1.60;;;13.60;99.90;;;;;;4973675;28;20568;-76
2021/09/28 06:07:46;;;;;;;3.73;2.20;;;13.50;99.90;;;;;;4979802;28;20179;-76
2021/09/28 06:10:12;;;;;;;2.10;1.90;;;13.50;99.90;;;;;;4992600;28;20182;-76
2021/09/28 06:12:37;;;;;;;4.23;2.37;;;13.60;99.90;;;;;;4994303;28;20226;-77
2021/09/28 06:15:03;;;;;;;3.17;1.90;;;13.60;99.90;;;;;;4994248;28;20187;-77
2021/09/28 06:17:29;;;;;;;3.00;2.07;;;13.60;99.90;;;;;;4986545;28;20471;-77
2021/09/28 06:19:55;;;;;;;3.70;1.80;;;13.60;99.90;;;;;;4958761;28;20711;-77
2021/09/28 06:22:20;;;;;;;4.77;1.70;;;13.50;99.90;;;;;;4967622;28;20215;-77
2021/09/28 06:24:46;;;;;;;2.33;1.80;;;13.50;99.90;;;;;;4982767;28;20658;-76
2021/09/28 06:27:12;;;;;;;3.23;1.60;;;13.40;99.90;;;;;;4974014;28;20580;-77
2021/09/28 06:29:37;;;;;;;5.07;2.33;;;13.40;99.90;;;;;;4971519;28;20603;-77
2021/09/28 06:32:03;;;;;;;2.50;1.70;;;13.40;99.90;;;;;;4967608;28;20204;-77
2021/09/28 06:34:29;;;;;;;5.20;1.90;;;13.40;99.90;;;;;;4971574;28;20196;-77
2021/09/28 06:36:55;;;;;;;3.57;1.80;;;13.50;99.90;;;;;;4970333;28;20193;-77
2021/09/28 06:39:21;;;;;;;2.83;1.87;;;13.50;99.90;;;;;;4974359;28;20239;-76
2021/09/28 06:41:46;;;;;;;1.83;1.60;;;13.50;99.90;;;;;;4974935;28;20210;-76
2021/09/28 06:44:12;;;;;;;4.97;2.07;;;13.50;99.90;;;;;;4973934;28;20191;-76
2021/09/28 06:46:38;;;;;;;4.47;1.90;;;13.50;99.90;;;;;;4973558;28;20642;-76
2021/09/28 06:49:04;;;;;;;3.63;1.50;;;13.50;99.90;;;;;;4970128;28;20185;-76
2021/09/28 06:51:30;;;;;;;2.00;1.70;;;13.60;99.90;;;;;;4970352;28;20211;-76
2021/09/28 06:53:56;;;;;;;3.90;2.30;;;13.60;99.90;;;;;;4967924;28;20188;-77
2021/09/28 06:56:22;;;;;;;5.53;1.70;;;13.60;99.90;;;;;;4968963;28;20663;-77
2021/09/28 06:58:48;;;;;;;1.77;1.53;;;13.60;99.90;;;;;;4975629;28;20187;-77
2021/09/28 07:01:14;;;;;;;2.30;1.70;;;13.60;99.90;;;;;;4970402;28;20677;-77
2021/09/28 07:03:40;;;;;;;3.23;1.60;;;13.70;99.90;;;;;;4971683;28;20216;-76
2021/09/28 07:06:06;;;;;;;4.43;1.60;;;13.60;99.90;;;;;;4972158;28;20670;-77
2021/09/28 07:08:32;;;;;;;3.33;1.90;;;13.60;99.90;;;;;;4974393;28;20554;-77
2021/09/28 07:10:58;;;;;;;3.77;1.60;;;13.50;99.90;;;;;;4971366;28;20191;-77
2021/09/28 07:13:23;;;;;;;3.13;1.57;;;13.50;99.90;;;;;;4971768;28;20711;-77
2021/09/28 07:15:49;;;;;;;2.40;1.53;;;13.50;99.90;;;;;;4977451;28;20190;-77
2021/09/28 07:18:15;;;;;;;3.77;1.80;;;13.60;99.90;;;;;;4974325;28;20556;-77
2021/09/28 07:20:41;;;;;;;3.03;2.00;;;13.60;99.90;;;;;;4975537;28;20653;-77
2021/09/28 07:23:07;;;;;;;2.63;2.00;;;13.70;99.90;;;;;;4972872;28;20204;-77
2021/09/28 07:25:33;;;;;;;4.57;1.80;;;13.70;99.90;;;;;;4960288;28;20649;-77
2021/09/28 07:28:00;;;;;;;3.47;1.97;;;13.80;99.90;;;;;;4960359;28;20253;-77
2021/09/28 07:30:31;;;;;;;4.87;2.03;;;13.70;99.90;;;;;;4986733;28;20595;-77
2021/09/28 07:32:57;;;;;;;3.07;1.80;;;13.80;99.90;;;;;;4996013;28;20204;-77
2021/09/28 07:35:23;;;;;;;3.83;2.37;;;13.70;99.90;;;;;;4995006;28;20211;-77
2021/09/28 07:37:49;;;;;;;2.33;2.00;;;13.80;99.90;;;;;;4997242;28;20238;-77
2021/09/28 07:40:16;;;;;;;6.23;2.20;;;13.80;99.90;;;;;;4997682;28;20210;-77
2021/09/28 07:42:42;;;;;;;1.90;1.43;;;13.80;99.90;;;;;;4987609;28;20211;-77
2021/09/28 07:45:08;;;;;;;6.63;2.17;;;13.90;99.90;;;;;;4996087;28;20600;-77
2021/09/28 07:47:34;;;;;;;3.67;1.60;;;14.00;99.90;;;;;;4991122;28;20543;-78
2021/09/28 07:50:00;;;;;;;2.50;1.80;;;14.00;99.90;;;;;;4982972;28;20259;-82
2021/09/28 07:52:25;;;;;;;2.30;1.40;;;14.10;99.90;;;;;;4999552;28;20239;-82
2021/09/28 07:54:51;;;;;;;4.43;1.73;;;14.10;99.90;;;;;;4986969;28;20187;-81
2021/09/28 07:57:17;;;;;;;3.10;1.27;;;14.10;99.90;;;;;;4997296;28;20544;-81
2021/09/28 07:59:42;;;;;;;2.93;1.30;;;14.10;99.90;;;;;;4991816;28;20278;-81
2021/09/28 08:02:08;;;;;;;2.30;1.40;;;14.10;99.90;;;;;;4989655;28;20215;-81
2021/09/28 08:04:35;;;;;;;3.80;1.30;;;14.10;99.90;;;;;;4997124;28;20538;-81
2021/09/28 08:07:01;;;;;;;2.43;1.57;;;14.10;99.90;;;;;;4998685;28;20604;-81
2021/09/28 08:09:27;;;;;;;1.60;1.40;;;14.20;99.90;;;;;;4998225;28;20182;-81
2021/09/28 08:11:53;;;;;;;3.73;1.10;;;14.20;99.90;;;;;;4998322;28;20211;-81
2021/09/28 08:14:19;;;;;;;1.80;0.80;;;14.20;99.90;;;;;;4992660;28;20663;-81
2021/09/28 08:16:45;;;;;;;2.00;1.10;;;14.20;99.90;;;;;;4991525;28;20597;-81
2021/09/28 08:19:10;;;;;;;2.43;1.00;;;14.20;99.90;;;;;;5004416;28;20172;-81
2021/09/28 08:21:37;;;;;;;2.13;1.17;;;14.20;99.90;;;;;;5006086;28;20203;-81
2021/09/28 08:24:03;;;;;;;3.27;1.30;;;14.30;99.90;;;;;;4980850;28;20202;-81
2021/09/28 08:29:10;;;;;;;3.93;1.10;;;14.50;99.90;;;;;;4995595;28;20175;-81
2021/09/28 08:31:41;;;;;;;2.73;1.13;;;14.40;99.90;;;;;;4999539;28;20208;-81
2021/09/28 08:34:07;;;;;;;4.60;1.20;;;14.40;99.90;;;;;;4981782;28;20240;-81
2021/09/28 08:36:33;;;;;;;3.83;1.10;;;14.40;99.90;;;;;;4980058;28;20219;-81
2021/09/28 08:39:00;;;;;;;2.20;1.30;;;14.40;99.90;;;;;;4980628;28;20268;-81
2021/09/28 08:41:26;;;;;;;3.70;1.07;;;14.50;99.90;;;;;;4980118;28;20290;-82
2021/09/28 08:43:53;;;;;;;2.97;1.53;;;14.50;99.90;;;;;;4982002;28;20184;-81
2021/09/28 08:46:20;;;;;;;3.47;1.30;;;14.50;99.90;;;;;;4982352;28;20184;-80
2021/09/28 08:48:48;;;;;;;4.33;1.63;;;14.60;99.90;;;;;;4987751;28;20210;-80
2021/09/28 08:51:14;;;;;;;3.93;1.63;;;14.60;99.90;;;;;;4989630;28;20195;-81
2021/09/28 08:53:40;;;;;;;2.73;1.23;;;14.60;99.90;;;;;;4984232;28;20184;-81
2021/09/28 08:56:12;;;;;;;2.70;1.70;;;14.70;99.90;;;;;;4995427;28;20635;-82
2021/09/28 08:58:57;;;;;;;3.17;1.50;;;14.70;99.90;;;;;;4982676;28;20565;-82
2021/09/28 09:01:23;;;;;;;3.33;1.30;;;14.70;99.90;;;;;;4970665;28;20216;-82
2021/09/28 09:03:49;;;;;;;5.40;1.57;;;14.80;99.90;;;;;;4978993;28;20191;-81
2021/09/28 09:06:15;;;;;;;3.30;1.30;;;14.70;99.90;;;;;;4981385;28;20180;-82
2021/09/28 09:08:42;;;;;;;2.67;1.20;;;14.80;99.90;;;;;;4993945;28;20235;-81
2021/09/28 09:11:12;;;;;;;2.07;1.63;;;14.80;99.90;;;;;;4992510;28;20574;-78
2021/09/28 09:13:50;;;;;;;1.57;1.37;;;14.90;99.90;;;;;;4964882;28;20619;-81
2021/09/28 09:16:18;;;;;;;3.10;2.00;;;14.90;99.90;;;;;;4965495;28;20181;-82
2021/09/28 09:18:47;;;;;;;3.67;2.03;;;14.90;99.90;;;;;;4962363;28;20192;-82
2021/09/28 09:21:16;;;;;;;4.63;1.97;;;14.90;99.90;;;;;;4967274;28;20228;-82
2021/09/28 09:23:45;;;;;;;4.83;2.10;;;14.90;99.90;;;;;;4977228;28;20660;-82
2021/09/28 09:26:29;;;;;;;5.53;1.70;;;15.00;99.90;;;;;;4976711;28;20184;-82
2021/09/28 09:28:57;;;;;;;3.90;1.60;;;15.10;99.90;;;;;;4967549;28;20212;-82
2021/09/28 09:31:31;;;;;;;5.73;1.80;;;15.10;99.90;;;;;;4975875;28;20243;-82
2021/09/28 09:34:14;;;;;;;3.93;1.20;;;15.20;99.90;;;;;;4973442;28;20272;-81
2021/09/28 09:36:40;;;;;;;3.30;1.63;;;15.30;99.90;;;;;;4973410;28;20187;-82
2021/09/28 09:39:09;;;;;;;3.80;1.70;;;15.40;99.90;;;;;;4975464;28;20204;-81
2021/09/28 09:41:36;;;;;;;3.73;1.40;;;15.50;99.90;;;;;;4978510;28;20217;-82
2021/09/28 09:44:15;;;;;;;3.20;1.40;;;15.50;99.90;;;;;;4975223;28;20189;-82
2021/09/28 09:46:46;;;;;;;3.87;1.47;;;15.60;99.90;;;;;;4964170;28;20659;-82
2021/09/28 09:49:15;;;;;;;1.80;1.03;;;15.60;99.90;;;;;;4975783;28;20183;-82
2021/09/28 09:51:53;;;;;;;2.90;1.30;;;15.70;99.90;;;;;;4975993;28;20243;-82
2021/09/28 09:54:31;;;;;;;2.00;1.20;;;15.70;99.90;;;;;;4971655;28;20267;-81
2021/09/28 09:56:56;;;;;;;2.80;0.87;;;15.60;99.90;;;;;;4961401;28;20177;-81
2021/09/28 09:59:23;;;;;;;3.57;0.83;;;15.60;99.90;;;;;;4966556;28;20196;-82
2021/09/28 10:01:50;;;;;;;3.53;0.80;;;15.50;99.90;;;;;;4974063;28;20270;-81
2021/09/28 10:04:18;;;;;;;2.70;0.87;;;15.60;99.90;;;;;;4975774;28;20618;-82
2021/09/28 10:06:44;;;;;;;1.30;0.80;;;15.70;99.90;;;;;;4974710;28;20230;-80
2021/09/28 10:09:39;;;;;;;4.43;1.03;;;15.80;99.90;;;;;;4969194;28;20185;-82
2021/09/28 10:12:08;;;;;;;1.90;0.60;;;15.90;99.90;;;;;;4974579;28;20226;-82
2021/09/28 10:14:39;;;;;;;2.63;0.90;;;15.80;99.90;;;;;;4970687;28;20216;-82
2021/09/28 10:17:29;;;;;;;2.00;0.70;;;15.90;99.90;;;;;;4977295;28;20211;-82
2021/09/28 10:19:59;;;;;;;2.33;1.03;;;15.90;99.90;;;;;;4964800;28;20225;-82
2021/09/28 10:22:40;;;;;;;1.83;0.87;;;15.90;99.90;;;;;;4982999;28;20207;-82
2021/09/28 10:25:34;;;;;;;2.93;0.90;;;16.00;99.90;;;;;;4975475;28;20341;-82
2021/09/28 10:28:05;;;;;;;6.40;1.00;;;16.10;99.90;;;;;;4976284;28;20177;-82
2021/09/28 10:30:31;;;;;;;1.97;0.80;;;16.30;99.90;;;;;;4979455;28;20183;-82
2021/09/28 10:33:00;;;;;;;1.63;0.70;;;16.30;99.90;;;;;;4977814;28;20288;-81
2021/09/28 10:35:27;;;;;;;1.40;0.70;;;16.40;99.90;;;;;;4969439;28;20315;-82
2021/09/28 10:38:06;;;;;;;4.07;0.60;;;16.40;99.90;;;;;;4984627;28;20593;-82
2021/09/28 10:40:33;;;;;;;2.13;1.03;;;16.50;99.90;;;;;;4977618;28;20669;-82
2021/09/28 10:43:23;;;;;;;1.77;0.70;;;16.50;99.90;;;;;;4976182;28;20453;-82
2021/09/28 10:45:49;;;;;;;2.97;0.70;;;16.60;99.90;;;;;;4973530;28;20197;-82
2021/09/28 10:48:24;;;;;;;2.30;0.77;;;16.70;99.90;;;;;;4967960;28;20193;-82
2021/09/28 10:51:09;;;;;;;2.10;1.00;;;16.70;99.90;;;;;;4991601;28;20180;-82
2021/09/28 10:53:43;;;;;;;2.47;0.90;;;16.80;99.90;;;;;;4974166;28;20652;-82
2021/09/28 10:56:15;;;;;;;2.40;0.70;;;16.80;99.90;;;;;;4977958;28;20184;-81
2021/09/28 10:58:57;;;;;;;1.97;0.90;;;16.80;99.90;;;;;;4974014;28;20184;-82
2021/09/28 11:01:30;;;;;;;1.90;0.90;;;16.90;99.90;;;;;;4994646;28;20213;-82
2021/09/28 11:04:03;;;;;;;2.57;0.83;;;17.00;99.90;;;;;;4977084;28;20186;-82
2021/09/28 11:06:41;;;;;;;6.07;0.87;;;17.10;99.90;;;;;;4984937;28;20183;-83
2021/09/28 11:09:11;;;;;;;1.23;0.57;;;17.20;99.90;;;;;;4971590;28;20217;-81
2021/09/28 11:11:37;;;;;;;1.57;0.50;;;17.20;99.90;;;;;;4987562;28;20305;-82
2021/09/28 11:14:05;;;;;;;3.17;0.90;;;17.30;99.90;;;;;;4976544;28;20198;-80
2021/09/28 11:16:50;;;;;;;1.80;0.50;;;17.40;99.90;;;;;;4984134;28;20190;-83
2021/09/28 11:19:16;;;;;;;1.83;0.60;;;17.40;99.90;;;;;;4974611;28;20194;-82
2021/09/28 11:21:43;;;;;;;2.00;0.90;;;17.40;99.90;;;;;;4982161;28;20219;-83
2021/09/28 11:24:11;;;;;;;1.67;0.77;;;17.40;99.90;;;;;;4984357;28;20182;-83
2021/09/28 11:26:42;;;;;;;1.67;0.70;;;17.40;99.90;;;;;;4980158;28;20172;-82
2021/09/28 11:29:10;;;;;;;2.33;0.83;;;17.30;99.90;;;;;;4981019;28;20182;-80
2021/09/28 11:31:39;;;;;;;1.87;1.03;;;17.50;99.90;;;;;;4991136;28;20206;-83
2021/09/28 11:34:05;;;;;;;4.10;0.80;;;17.60;99.90;;;;;;4981570;28;20220;-82
2021/09/28 11:36:36;;;;;;;2.70;0.80;;;17.70;99.90;;;;;;4980486;28;20190;-80
2021/09/28 11:39:02;;;;;;;1.93;0.73;;;17.70;99.90;;;;;;4973340;28;20230;-83
2021/09/28 11:41:28;;;;;;;3.00;0.73;;;18.00;99.90;;;;;;4988653;28;20765;-83
2021/09/28 11:43:56;;;;;;;3.93;0.70;;;18.00;99.90;;;;;;4973215;28;20211;-83
2021/09/28 11:46:27;;;;;;;1.80;0.60;;;17.90;99.90;;;;;;4978981;28;20183;-83
2021/09/28 11:48:58;;;;;;;3.10;0.83;;;17.90;99.90;;;;;;4970873;28;20206;-83
2021/09/28 11:51:35;;;;;;;2.30;0.70;;;17.90;99.90;;;;;;4982487;28;20196;-83
2021/09/28 11:54:03;;;;;;;2.00;0.80;;;17.90;99.90;;;;;;4990681;28;20550;-83
2021/09/28 11:56:32;;;;;;;2.37;0.60;;;17.90;99.90;;;;;;4973612;28;20180;-82
2021/09/28 11:58:58;;;;;;;1.43;0.57;;;17.90;99.90;;;;;;4964767;28;20191;-83
2021/09/28 12:01:25;;;;;;;2.37;0.73;;;17.90;99.90;;;;;;4974241;28;20210;-83
2021/09/28 12:04:14;;;;;;;2.07;0.60;;;17.90;99.90;;;;;;4973515;28;20172;-82
2021/09/28 12:09:39;;;;;;;2.70;0.80;;;17.70;99.90;;;;;;4972848;28;20215;-83
2021/09/28 12:12:09;;;;;;;2.90;0.87;;;17.70;99.90;;;;;;4978369;28;20224;-83
2021/09/28 12:14:40;;;;;;;1.07;0.57;;;17.80;99.90;;;;;;4974950;28;20188;-82
2021/09/28 12:17:14;;;;;;;3.40;0.57;;;17.80;99.90;;;;;;4981476;28;20183;-83
2021/09/28 12:19:46;;;;;;;5.93;1.00;;;17.80;99.90;;;;;;4991888;28;20191;-83
2021/09/28 12:22:13;;;;;;;2.57;0.80;;;17.80;99.90;;;;;;4972925;28;20201;-83
2021/09/28 12:24:49;;;;;;;1.33;0.60;;;17.90;99.90;;;;;;4981135;28;20190;-83
2021/09/28 12:27:15;;;;;;;2.73;1.07;;;17.80;99.90;;;;;;4975218;28;20187;-83
2021/09/28 12:29:46;;;;;;;1.80;0.70;;;17.90;99.90;;;;;;4976403;28;20180;-83
2021/09/28 12:32:22;;;;;;;2.03;0.83;;;17.90;99.90;;;;;;4972158;28;20213;-83
2021/09/28 12:35:00;;;;;;;2.10;0.80;;;18.00;99.90;;;;;;4980509;28;20194;-83
2021/09/28 12:37:29;;;;;;;2.07;1.00;;;18.10;99.90;;;;;;4975863;28;20186;-83
2021/09/28 12:40:15;;;;;;;0.97;0.70;;;18.20;99.90;;;;;;4983481;28;20229;-83
2021/09/28 12:42:41;;;;;;;2.50;0.63;;;18.20;99.90;;;;;;4980705;28;20262;-83
2021/09/28 12:45:10;;;;;;;2.23;0.80;;;18.20;99.90;;;;;;4969335;28;20188;-83
2021/09/28 12:47:39;;;;;;;1.30;0.77;;;18.20;99.90;;;;;;4976025;28;20180;-83
2021/09/28 12:50:19;;;;;;;2.10;0.70;;;18.20;99.90;;;;;;4977256;28;20314;-80
2021/09/28 12:52:46;;;;;;;0.70;0.40;;;18.00;99.90;;;;;;4975411;28;20295;-82
2021/09/28 12:55:12;;;;;;;1.13;0.70;;;18.10;99.90;;;;;;4975048;28;20188;-83